createdAt,value
2022-08-14T00:00:07.812Z,5.93
2022-08-14T00:03:29.471Z,5.72
2022-08-14T00:06:31.292Z,5.97
2022-08-14T00:09:33.193Z,6.03
2022-08-14T00:12:39.599Z,6.00
2022-08-14T00:15:44.506Z,5.57
2022-08-14T00:19:06.808Z,5.80
2022-08-14T00:22:44.187Z,6.07
2022-08-14T00:25:42.011Z,5.75
2022-08-14T00:28:44.335Z,5.50
2022-08-14T00:31:47.698Z,6.10
2022-08-14T00:35:01.401Z,6.32
2022-08-14T00:38:03.207Z,5.55
2022-08-14T00:41:11.009Z,5.90
2022-08-14T00:44:14.109Z,6.40
2022-08-14T00:47:17.049Z,6.25
2022-08-14T00:50:21.968Z,6.07
2022-08-14T00:53:25.429Z,6.00
2022-08-14T00:56:31.333Z,5.65
2022-08-14T00:59:33.306Z,6.15
2022-08-14T01:02:37.700Z,6.15
2022-08-14T01:05:41.810Z,5.72
2022-08-14T01:08:59.342Z,6.20
2022-08-14T01:12:03.275Z,5.63
2022-08-14T01:15:05.592Z,6.13
2022-08-14T01:18:31.200Z,6.22
2022-08-14T01:21:47.376Z,5.75
2022-08-14T01:24:55.560Z,5.80
2022-08-14T01:27:59.403Z,6.00
2022-08-14T01:31:01.810Z,6.10
2022-08-14T01:35:16.503Z,6.43
2022-08-14T01:37:28.767Z,6.18
2022-08-14T01:40:41.063Z,5.80
2022-08-14T01:43:44.969Z,6.15
2022-08-14T01:47:01.117Z,6.15
2022-08-14T01:50:05.759Z,6.38
2022-08-14T01:53:08.113Z,6.28
2022-08-14T01:56:12.142Z,6.13
2022-08-14T01:59:19.929Z,6.40
2022-08-14T02:02:23.004Z,6.28
2022-08-14T02:05:34.947Z,6.22
2022-08-14T02:08:53.388Z,6.40
2022-08-14T02:11:56.905Z,6.30
2022-08-14T02:15:01.460Z,6.28
2022-08-14T02:18:04.257Z,6.20
2022-08-14T02:21:06.522Z,6.15
2022-08-14T02:24:09.427Z,5.57
2022-08-14T02:28:24.891Z,6.28
2022-08-14T02:30:52.341Z,6.20
2022-08-14T02:33:55.052Z,6.13
2022-08-14T02:37:04.886Z,6.50
2022-08-14T02:40:09.257Z,6.05
2022-08-14T02:43:11.737Z,6.60
2022-08-14T02:46:13.667Z,6.07
2022-08-14T02:49:33.107Z,6.40
2022-08-14T02:52:57.221Z,5.90
2022-08-14T02:56:02.532Z,6.28
2022-08-14T02:59:09.420Z,6.20
2022-08-14T03:02:33.459Z,6.10
2022-08-14T03:05:36.246Z,6.43
2022-08-14T03:08:40.260Z,6.10
2022-08-14T03:11:48.120Z,6.57
2022-08-14T03:14:51.271Z,6.38
2022-08-14T03:17:57.033Z,6.30
2022-08-14T03:21:13.390Z,6.22
2022-08-14T03:24:21.448Z,6.03
2022-08-14T03:27:26.933Z,6.25
2022-08-14T03:30:48.431Z,6.40
2022-08-14T03:33:51.598Z,6.32
2022-08-14T03:37:51.400Z,6.30
2022-08-14T03:40:22.683Z,6.78
2022-08-14T03:43:24.214Z,6.10
2022-08-14T03:46:52.921Z,6.57
2022-08-14T03:49:56.084Z,6.85
2022-08-14T03:53:01.575Z,6.18
2022-08-14T03:56:07.523Z,6.40
2022-08-14T03:59:18.045Z,6.68
2022-08-14T04:02:33.330Z,6.60
2022-08-14T04:05:43.285Z,6.67
2022-08-14T04:08:51.548Z,6.30
2022-08-14T04:11:53.105Z,6.40
2022-08-14T04:14:54.651Z,6.85
2022-08-14T04:17:56.378Z,6.45
2022-08-14T04:20:59.242Z,6.80
2022-08-14T04:24:01.663Z,6.78
2022-08-14T04:27:03.344Z,6.60
2022-08-14T04:30:05.959Z,7.00
2022-08-14T04:33:17.143Z,6.30
2022-08-14T04:36:24.031Z,6.72
2022-08-14T04:39:46.377Z,6.65
2022-08-14T04:43:07.041Z,7.20
2022-08-14T04:46:55.818Z,6.63
2022-08-14T04:49:56.650Z,6.88
2022-08-14T04:52:59.180Z,7.00
2022-08-14T04:56:00.858Z,7.00
2022-08-14T04:59:09.694Z,6.35
2022-08-14T05:05:15.486Z,7.07
2022-08-14T05:08:32.324Z,6.78
2022-08-14T05:11:40.183Z,6.78
2022-08-14T05:14:46.274Z,6.57
2022-08-14T05:18:16.862Z,7.32
2022-08-14T05:21:56.163Z,7.35
2022-08-14T05:24:37.771Z,6.90
2022-08-14T05:27:40.049Z,7.43
2022-08-14T05:30:43.622Z,7.47
2022-08-14T05:33:46.441Z,7.57
2022-08-14T05:37:02.345Z,7.00
2022-08-14T05:40:05.298Z,7.65
2022-08-14T05:43:08.630Z,7.43
2022-08-14T05:46:18.405Z,7.32
2022-08-14T05:49:19.911Z,7.82
2022-08-14T05:52:26.401Z,7.40
2022-08-14T05:55:44.359Z,7.47
2022-08-14T05:58:46.578Z,7.50
2022-08-14T06:01:48.123Z,7.30
2022-08-14T06:04:52.585Z,7.30
2022-08-14T06:07:54.329Z,7.57
2022-08-14T06:11:03.012Z,7.55
2022-08-14T06:14:12.509Z,7.57
2022-08-14T06:17:26.051Z,7.07
2022-08-14T06:20:30.110Z,7.68
2022-08-14T06:23:32.176Z,7.03
2022-08-14T06:26:34.047Z,7.30
2022-08-14T06:29:37.581Z,7.38
2022-08-14T06:32:39.589Z,7.57
2022-08-14T06:35:44.787Z,7.75
2022-08-14T06:38:50.477Z,7.40
2022-08-14T06:41:57.505Z,8.13
2022-08-14T06:45:03.758Z,7.53
2022-08-14T06:48:21.702Z,7.85
2022-08-14T06:51:23.316Z,7.40
2022-08-14T06:54:31.599Z,7.93
2022-08-14T06:57:38.850Z,7.75
2022-08-14T07:01:01.647Z,8.00
2022-08-14T07:04:24.328Z,8.20
2022-08-14T07:07:28.564Z,7.60
2022-08-14T07:10:30.681Z,7.63
2022-08-14T07:13:32.281Z,7.72
2022-08-14T07:16:34.102Z,7.35
2022-08-14T07:19:35.653Z,7.18
2022-08-14T07:22:56.223Z,7.72
2022-08-14T07:26:00.413Z,7.75
2022-08-14T07:29:03.930Z,7.90
2022-08-14T07:32:07.406Z,7.75
2022-08-14T07:35:11.981Z,8.57
2022-08-14T07:38:20.612Z,8.05
2022-08-14T07:41:22.138Z,7.88
2022-08-14T07:44:32.513Z,7.25
2022-08-14T07:47:44.147Z,8.02
2022-08-14T07:50:46.218Z,7.95
2022-08-14T07:53:48.927Z,7.70
2022-08-14T07:56:59.860Z,8.18
2022-08-14T08:00:02.345Z,8.00
2022-08-14T08:03:14.192Z,7.72
2022-08-14T08:06:17.513Z,8.10
2022-08-14T08:09:24.416Z,8.20
2022-08-14T08:12:30.121Z,8.00
2022-08-14T08:15:36.219Z,8.00
2022-08-14T08:18:38.164Z,8.02
2022-08-14T08:21:43.886Z,9.00
2022-08-14T08:24:46.740Z,8.63
2022-08-14T08:28:08.585Z,8.50
2022-08-14T08:31:12.545Z,8.15
2022-08-14T08:34:18.269Z,7.93
2022-08-14T08:37:19.959Z,8.40
2022-08-14T08:40:42.282Z,8.32
2022-08-14T08:43:46.254Z,8.50
2022-08-14T08:46:57.722Z,9.05
2022-08-14T08:50:00.207Z,9.20
2022-08-14T08:53:07.207Z,8.88
2022-08-14T08:56:08.882Z,9.32
2022-08-14T08:59:31.337Z,8.90
2022-08-14T09:02:35.496Z,8.77
2022-08-14T09:05:49.592Z,9.50
2022-08-14T09:08:51.112Z,8.90
2022-08-14T09:11:54.937Z,9.13
2022-08-14T09:14:57.154Z,9.32
2022-08-14T09:17:59.616Z,9.32
2022-08-14T09:21:01.248Z,9.52
2022-08-14T09:24:28.337Z,9.68
2022-08-14T09:27:24.495Z,9.25
2022-08-14T09:30:32.645Z,9.23
2022-08-14T09:34:09.224Z,9.10
2022-08-14T09:37:40.116Z,9.77
2022-08-14T09:40:55.920Z,9.05
2022-08-14T09:44:16.231Z,9.30
2022-08-14T09:47:43.312Z,9.00
2022-08-14T09:50:54.165Z,9.23
2022-08-14T09:54:22.740Z,9.18
2022-08-14T09:57:29.025Z,8.98
2022-08-14T10:00:42.602Z,9.38
2022-08-14T10:03:55.620Z,8.55
2022-08-14T10:06:57.265Z,9.02
2022-08-14T10:10:02.245Z,9.35
2022-08-14T10:13:20.289Z,8.75
2022-08-14T10:16:33.749Z,8.70
2022-08-14T10:19:48.324Z,8.55
2022-08-14T10:23:15.125Z,8.77
2022-08-14T10:26:23.100Z,8.98
2022-08-14T10:29:40.743Z,8.88
2022-08-14T10:32:51.492Z,8.50
2022-08-14T10:35:53.978Z,8.70
2022-08-14T10:39:01.150Z,8.93
2022-08-14T10:42:18.326Z,9.20
2022-08-14T10:45:46.292Z,8.43
2022-08-14T10:49:00.114Z,8.68
2022-08-14T10:52:06.925Z,8.68
2022-08-14T10:55:13.177Z,8.93
2022-08-14T10:58:17.796Z,8.90
2022-08-14T11:01:30.887Z,9.30
2022-08-14T11:04:37.551Z,9.38
2022-08-14T11:07:55.353Z,9.27
2022-08-14T11:11:01.496Z,9.48
2022-08-14T11:14:06.499Z,9.05
2022-08-14T11:17:13.206Z,8.80
2022-08-14T11:20:16.928Z,9.32
2022-08-14T11:23:20.610Z,8.52
2022-08-14T11:26:24.469Z,9.60
2022-08-14T11:29:26.892Z,9.18
2022-08-14T11:32:31.005Z,9.05
2022-08-14T11:35:44.102Z,9.40
2022-08-14T11:38:49.340Z,9.18
2022-08-14T11:41:55.935Z,8.43
2022-08-14T11:45:00.711Z,9.00
2022-08-14T11:49:02.933Z,9.52
2022-08-14T11:51:54.135Z,9.23
2022-08-14T11:54:58.340Z,9.52
2022-08-14T11:58:03.492Z,9.40
2022-08-14T12:01:09.521Z,9.32
2022-08-14T12:04:31.714Z,9.15
2022-08-14T12:07:34.552Z,9.05
2022-08-14T12:10:41.090Z,9.40
2022-08-14T12:13:45.165Z,9.27
2022-08-14T12:17:04.097Z,9.15
2022-08-14T12:20:06.857Z,9.38
2022-08-14T12:23:23.010Z,9.88
2022-08-14T12:26:39.824Z,9.40
2022-08-14T12:29:53.446Z,8.65
2022-08-14T12:32:56.297Z,8.73
2022-08-14T12:36:04.431Z,9.07
2022-08-14T12:42:36.471Z,9.25
2022-08-14T12:45:50.025Z,8.68
2022-08-14T12:48:52.273Z,9.20
2022-08-14T12:51:59.523Z,8.93
2022-08-14T12:55:06.660Z,8.98
2022-08-14T12:58:29.475Z,8.55
2022-08-14T13:01:59.292Z,9.02
2022-08-14T13:04:57.982Z,9.05
2022-08-14T13:08:03.602Z,9.18
2022-08-14T13:11:06.354Z,9.23
2022-08-14T13:14:17.505Z,9.13
2022-08-14T13:17:20.594Z,9.53
2022-08-14T13:20:26.719Z,9.07
2022-08-14T13:23:36.236Z,9.60
2022-08-14T13:26:47.803Z,9.40
2022-08-14T13:29:52.636Z,9.02
2022-08-14T13:32:58.408Z,9.40
2022-08-14T13:36:02.215Z,9.02
2022-08-14T13:39:03.845Z,10.10
2022-08-14T13:42:10.926Z,9.40
2022-08-14T13:45:15.444Z,9.32
2022-08-14T13:48:30.695Z,9.57
2022-08-14T13:51:46.020Z,9.65
2022-08-14T13:54:54.906Z,9.98
2022-08-14T13:58:03.029Z,10.18
2022-08-14T14:01:06.773Z,9.45
2022-08-14T14:04:19.022Z,9.50
2022-08-14T14:07:21.736Z,9.75
2022-08-14T14:10:28.476Z,9.95
2022-08-14T14:13:31.924Z,9.80
2022-08-14T14:16:33.661Z,9.60
2022-08-14T14:19:35.600Z,9.82
2022-08-14T14:23:01.584Z,10.38
2022-08-14T14:26:04.841Z,9.57
2022-08-14T14:29:07.667Z,9.65
2022-08-14T14:32:09.898Z,10.02
2022-08-14T14:35:22.655Z,10.23
2022-08-14T14:38:34.585Z,9.63
2022-08-14T14:41:43.912Z,9.88
2022-08-14T14:44:46.647Z,9.10
2022-08-14T14:47:51.598Z,9.23
2022-08-14T14:51:01.411Z,9.40
2022-08-14T14:54:03.299Z,9.32
2022-08-14T14:57:09.130Z,9.02
2022-08-14T15:00:13.201Z,8.85
2022-08-14T15:03:20.032Z,8.93
2022-08-14T15:06:22.347Z,8.80
2022-08-14T15:09:33.595Z,9.13
2022-08-14T15:12:56.257Z,8.68
2022-08-14T15:15:57.007Z,8.50
2022-08-14T15:18:58.507Z,8.70
2022-08-14T15:22:00.305Z,8.60
2022-08-14T15:25:01.848Z,9.40
2022-08-14T15:28:05.516Z,9.95
2022-08-14T15:31:08.116Z,9.63
2022-08-14T15:34:44.530Z,9.48
2022-08-14T15:40:44.131Z,9.00
2022-08-14T15:43:54.278Z,8.70
2022-08-14T15:46:59.669Z,8.70
2022-08-14T15:50:08.623Z,8.82
2022-08-14T15:56:37.588Z,9.20
2022-08-14T15:59:56.996Z,9.02
2022-08-14T16:03:00.804Z,8.43
2022-08-14T16:06:15.559Z,8.93
2022-08-14T16:09:19.112Z,9.13
2022-08-14T16:12:41.118Z,8.85
2022-08-14T16:15:45.370Z,8.75
2022-08-14T16:18:58.370Z,9.52
2022-08-14T16:22:58.440Z,8.80
2022-08-14T16:25:34.555Z,8.77
2022-08-14T16:28:37.211Z,8.35
2022-08-14T16:31:39.875Z,8.77
2022-08-14T16:34:47.876Z,8.93
2022-08-14T16:37:51.719Z,8.65
2022-08-14T16:41:17.001Z,8.52
2022-08-14T16:44:21.851Z,8.65
2022-08-14T16:47:36.415Z,9.52
2022-08-14T16:50:43.205Z,9.07
2022-08-14T16:53:47.502Z,9.18
2022-08-14T16:56:49.155Z,9.00
2022-08-14T16:59:58.953Z,9.15
2022-08-14T17:03:08.650Z,8.85
2022-08-14T17:06:30.570Z,9.15
2022-08-14T17:09:43.521Z,9.02
2022-08-14T17:12:45.452Z,8.75
2022-08-14T17:16:08.438Z,9.27
2022-08-14T17:19:13.766Z,9.88
2022-08-14T17:22:17.121Z,8.90
2022-08-14T17:25:22.521Z,8.90
2022-08-14T17:28:52.582Z,8.40
2022-08-14T17:31:58.073Z,8.35
2022-08-14T17:35:01.789Z,8.68
2022-08-14T17:38:10.267Z,8.38
2022-08-14T17:41:44.462Z,8.52
2022-08-14T17:44:48.086Z,8.52
2022-08-14T17:47:51.304Z,7.95
2022-08-14T17:51:00.202Z,8.27
2022-08-14T17:57:10.570Z,8.80
2022-08-14T18:00:16.499Z,8.30
2022-08-14T18:03:49.862Z,8.23
2022-08-14T18:06:58.461Z,8.25
2022-08-14T18:10:52.563Z,7.75
2022-08-14T18:13:51.351Z,8.15
2022-08-14T18:16:55.785Z,8.27
2022-08-14T18:19:58.723Z,8.40
2022-08-14T18:23:01.834Z,8.32
2022-08-14T18:26:08.445Z,8.27
2022-08-14T18:29:32.040Z,8.48
2022-08-14T18:32:33.703Z,8.50
2022-08-14T18:35:58.498Z,8.40
2022-08-14T18:39:25.747Z,8.43
2022-08-14T18:42:32.851Z,8.25
2022-08-14T18:45:42.910Z,8.13
2022-08-14T18:48:50.515Z,7.72
2022-08-14T18:52:19.014Z,8.30
2022-08-14T18:55:21.265Z,8.30
2022-08-14T18:58:31.346Z,8.05
2022-08-14T19:01:35.959Z,8.18
2022-08-14T19:04:37.815Z,8.15
2022-08-14T19:07:48.268Z,7.70
2022-08-14T19:10:59.460Z,8.10
2022-08-14T19:14:05.015Z,8.30
2022-08-14T19:18:14.061Z,8.18
2022-08-14T19:21:43.525Z,7.88
2022-08-14T19:24:45.745Z,7.88
2022-08-14T19:28:15.229Z,7.70
2022-08-14T19:31:41.999Z,7.72
2022-08-14T19:34:52.142Z,7.15
2022-08-14T19:37:56.187Z,7.95
2022-08-14T19:40:58.720Z,7.53
2022-08-14T19:44:10.185Z,7.95
2022-08-14T19:47:13.614Z,7.95
2022-08-14T19:50:30.657Z,8.05
2022-08-14T19:53:58.681Z,8.13
2022-08-14T19:57:01.903Z,8.30
2022-08-14T20:00:27.999Z,8.43
2022-08-14T20:03:59.993Z,8.20
2022-08-14T20:07:04.260Z,8.38
2022-08-14T20:11:03.250Z,8.10
2022-08-14T20:13:59.074Z,7.87
2022-08-14T20:17:06.106Z,8.13
2022-08-14T20:20:20.786Z,8.30
2022-08-14T20:23:38.248Z,8.25
2022-08-14T20:26:42.331Z,8.60
2022-08-14T20:30:29.883Z,8.02
2022-08-14T20:33:31.898Z,8.13
2022-08-14T20:36:49.872Z,8.60
2022-08-14T20:39:54.561Z,8.63
2022-08-14T20:43:15.696Z,8.40
2022-08-14T20:46:18.196Z,8.40
2022-08-14T20:49:28.955Z,9.00
2022-08-14T20:52:30.483Z,9.05
2022-08-14T20:55:41.426Z,8.70
2022-08-14T20:58:47.922Z,8.27
2022-08-14T21:01:55.353Z,9.25
2022-08-14T21:05:04.633Z,9.38
2022-08-14T21:08:22.417Z,9.07
2022-08-14T21:11:26.186Z,8.98
2022-08-14T21:14:30.542Z,9.00
2022-08-14T21:17:37.370Z,10.05
2022-08-14T21:20:44.012Z,9.52
2022-08-14T21:23:53.818Z,9.40
2022-08-14T21:27:04.486Z,9.98
2022-08-14T21:30:20.277Z,9.77
2022-08-14T21:33:23.434Z,9.73
2022-08-14T21:36:25.085Z,9.98
2022-08-14T21:39:33.207Z,9.30
2022-08-14T21:42:35.950Z,10.30
2022-08-14T21:45:38.931Z,10.10
2022-08-14T21:48:44.483Z,9.82
2022-08-14T21:51:55.279Z,9.43
2022-08-14T21:55:09.544Z,9.90
2022-08-14T21:58:52.612Z,9.50
2022-08-14T22:01:59.578Z,9.88
2022-08-14T22:04:56.712Z,9.65
2022-08-14T22:07:58.570Z,9.23
2022-08-14T22:11:00.260Z,9.55
2022-08-14T22:14:25.999Z,9.23
2022-08-14T22:17:32.472Z,9.38
2022-08-14T22:20:36.322Z,9.65
2022-08-14T22:23:37.952Z,9.50
2022-08-14T22:26:44.929Z,9.90
2022-08-14T22:29:46.729Z,9.98
2022-08-14T22:32:58.502Z,9.20
2022-08-14T22:36:25.069Z,9.35
2022-08-14T22:40:17.395Z,9.65
2022-08-14T22:43:00.201Z,9.05
2022-08-14T22:46:06.326Z,9.20
2022-08-14T22:50:32.453Z,9.32
2022-08-14T22:52:39.479Z,9.55
2022-08-14T22:55:41.196Z,8.48
2022-08-14T22:58:43.427Z,8.95
2022-08-14T23:02:03.602Z,8.98
2022-08-14T23:05:07.420Z,8.30
2022-08-14T23:08:56.139Z,8.27
2022-08-14T23:11:33.706Z,8.70
2022-08-14T23:14:35.277Z,8.05
2022-08-14T23:17:40.248Z,8.70
2022-08-14T23:20:42.467Z,8.30
2022-08-14T23:23:45.989Z,8.43
2022-08-14T23:26:53.625Z,8.30
2022-08-14T23:29:55.513Z,7.93
2022-08-14T23:32:57.195Z,7.78
2022-08-14T23:36:00.475Z,8.18
2022-08-14T23:39:02.063Z,8.20
2022-08-14T23:42:11.964Z,7.60
2022-08-14T23:45:19.638Z,8.30
2022-08-14T23:48:40.330Z,8.00
2022-08-14T23:51:48.956Z,7.73
2022-08-14T23:55:11.212Z,7.68
2022-08-14T23:58:29.629Z,7.70
